Weather observations for the past three days for
Santa Barbara, Santa Barbara Municipal Airport
Imperial (Metric)
Date Time (pdt) Wind (mph) Vis. (mi.) Weather Sky Cond. Temperature (ºF) Relative Humidity Wind Chill (°F) Heat Index (°F) Pressure Precipitation (in)
Air Dwpt 6 hour altimeter (in) sea level (mb) 1 hr 3 hr 6 hr
Max. Min.
05 15:53 W 16 G 26 10.00 Mostly Cloudy BKN070 69.1 48.9 49% 29.91 1012.7
05 14:53 W 15 G 24 10.00 Overcast BKN060 OVC100 66 51.1 59% 29.92 1013.2
05 13:53 W 18 G 31 10.00 Mostly Cloudy FEW065 BKN085 66 48.9 54% 29.93 1013.5
05 12:53 W 16 G 25 10.00 A Few Clouds FEW065 FEW100 66 50 56% 29.94 1013.9
05 11:53 SW 14 10.00 Fair CLR 66.9 48 51% 29.95 1014.1
05 10:53 SW 12 10.00 Fair CLR 66.9 45 68 52 45% 29.95 1014.1
05 09:53 S 8 10.00 Fair CLR 63 45 52% 29.95 1014.2
05 08:53 SE 3 10.00 Mostly Cloudy BKN075 60.1 44.1 56% 29.94 1013.9
05 07:53 SE 3 10.00 Partly Cloudy SCT075 57.9 46 65% 29.93 1013.6
05 06:53 E 3 10.00 Overcast OVC070 57 44.1 62% 29.93 1013.5
05 05:53 Calm 10.00 Overcast OVC080 55.9 43 62% 29.93 1013.3
05 04:53 Calm 10.00 Mostly Cloudy BKN085 55 46 59 51.1 72% 29.93 1013.3
05 03:53 S 5 10.00 A Few Clouds FEW085 52 43 72% 29.93 1013.5
05 02:53 Vrbl 3 10.00 Fair CLR 55 42.1 62% 29.93 1013.6
05 01:53 SE 3 10.00 Mostly Cloudy BKN085 55.9 46.9 72% 29.95 1014.1
05 00:53 Calm 10.00 Overcast OVC065 57.9 43 58% 29.96 1014.5
04 23:53 Calm 10.00 Overcast BKN060 OVC080 57 46 67% 29.96 1014.4
04 22:53 S 3 10.00 Overcast FEW055 OVC080 57 50 64 57 78% 29.96 1014.5
04 21:53 NW 5 10.00 Mostly Cloudy BKN080 60.1 46 60% 29.95 1014.2
04 20:53 Calm 10.00 Mostly Cloudy SCT050 BKN055 59 51.1 75% 29.95 1014.3
04 19:53 W 6 10.00 Overcast OVC050 59 50 72% 29.94 1013.9
04 18:53 W 12 10.00 Overcast OVC050 60.1 48.9 67% 29.95 1014.0
04 17:53 W 13 10.00 Mostly Cloudy BKN085 63 48.9 60% 29.96 1014.5
04 16:53 W 13 10.00 Overcast OVC075 62.1 48.9 66 62.1 62% 29.96 1014.6
04 15:53 W 14 G 22 10.00 Overcast BKN075 OVC090 64 50 60% 29.97 1014.8
04 14:53 W 14 G 22 10.00 Mostly Cloudy BKN090 66 48 52% 29.98 1015.3
04 13:53 W 13 10.00 Mostly Cloudy BKN090 64.9 48.9 56% 30 1015.8
04 12:53 W 15 G 24 10.00 Mostly Cloudy BKN085 64.9 50 59% 29.99 1015.6
04 11:53 SW 15 G 22 10.00 Partly Cloudy SCT080 64.9 48 54% 29.99 1015.5
04 10:53 W 14 10.00 Fair CLR 64.9 46.9 66.9 46.9 52% 29.98 1015.3
04 09:53 W 8 10.00 Partly Cloudy SCT065 66 45 47% 29.97 1014.9
04 08:53 W 12 10.00 Partly Cloudy SCT075 61 48 63% 29.98 1015.0
04 07:53 W 3 9.00 Fair CLR 57.9 46.9 67% 29.97 1014.9
04 06:53 W 3 10.00 Fair CLR 48.9 43 80% 29.96 1014.4
04 05:53 Calm 10.00 Fair CLR 48 43 83% 29.95 1014.2
04 04:53 Calm 10.00 Fair CLR 48.9 43 60.1 48 80% 29.94 1013.9
04 03:53 Calm 10.00 Fair CLR 51.1 44.1 77% 29.95 1014.0
04 02:53 N 5 10.00 Fair CLR 52 45 77% 29.96 1014.3
04 01:53 SE 5 10.00 Partly Cloudy SCT070 55.9 44.1 65% 29.97 1014.7
04 00:53 Calm 10.00 Overcast OVC070 57.9 43 58% 29.98 1015.1
03 23:53 NE 5 10.00 Overcast OVC065 57.9 46 65% 29.97 1014.7
03 22:53 SW 7 10.00 Overcast OVC065 60.1 46 63 60.1 60% 29.97 1014.7
03 21:53 N 5 10.00 Overcast OVC060 61 44.1 54% 29.96 1014.5
03 20:53 N 9 10.00 Overcast OVC060 62.1 45 54% 29.94 1013.8
03 19:53 Calm 10.00 Overcast BKN047 OVC060 61 50 67% 29.92 1013.2
03 18:53 W 10 10.00 Overcast OVC041 61 50 67% 29.92 1013.2
03 17:53 W 10 10.00 Overcast BKN050 OVC060 61 48.9 65% 29.92 1013.1
03 16:53 W 12 10.00 Overcast SCT040 OVC049 63 48 66 61 58% 29.92 1013.1
03 15:53 SW 8 10.00 A Few Clouds FEW042 FEW055 64.9 51.1 61% 29.92 1013.1
03 14:53 S 6 10.00 Mostly Cloudy BKN047 63 48.9 60% 29.94 1013.7
03 13:53 S 8 10.00 Overcast OVC049 63 48.9 60% 29.94 1014.0
03 12:53 SE 10 10.00 Overcast OVC043 62.1 52 70% 29.95 1014.2
03 11:53 SE 9 10.00 Overcast BKN043 OVC050 61 52 72% 29.96 1014.5
03 10:53 SE 9 10.00 Overcast BKN025 OVC040 61 52 62.1 55.9 72% 29.96 1014.4
03 09:53 E 5 10.00 Overcast BKN025 OVC040 59 52 78% 29.96 1014.4
03 08:53 SE 7 10.00 Overcast SCT011 BKN022 OVC027 57.9 52 81% 29.94 1014.0
03 07:53 NE 6 10.00 Mostly Cloudy SCT011 BKN014 57 52 83% 29.93 1013.6
03 06:53 Calm 10.00 Mostly Cloudy BKN014 57 52 83% 29.91 1012.9
03 05:53 S 5 10.00 Overcast SCT014 SCT021 OVC030 57 52 83% 29.9 1012.5
03 04:53 SE 6 10.00 Overcast OVC026 57 53.1 57.9 57 87% 29.89 1012.2
03 03:53 SE 6 10.00 Overcast OVC025 57 53.1 87% 29.9 1012.5
03 02:53 E 6 10.00 Overcast OVC026 57.9 52 81% 29.89 1012.1
03 01:53 E 5 10.00 Partly Cloudy SCT025 57 52 83% 29.9 1012.5
03 00:53 E 3 10.00 Overcast OVC023 57.9 52 81% 29.91 1012.9
02 23:53 SE 3 10.00 Overcast OVC022 57 52 83% 29.91 1012.7
02 22:53 SE 6 10.00 Mostly Cloudy BKN024 57.9 54 64.9 55 87% 29.89 1012.3
02 21:53 E 5 10.00 Fair CLR 55 52 90% 29.88 1011.9
02 20:53 Calm 10.00 Overcast OVC018 57.9 54 87% 29.87 1011.3
02 19:53 W 6 8.00 Partly Cloudy SCT025 57.9 53.1 84% 29.85 1010.8
02 18:53 W 12 10.00 Fair CLR 60.1 53.1 78% 29.84 1010.5
02 17:53 W 9 10.00 Fair CLR 62.1 55 78% 29.86 1011.0
02 16:53 SW 9 10.00 Fair CLR 64.9 55 64.9 57.9 70% 29.86 1011.2
Date Time (pdt) Wind (mph) Vis. (mi.) Weather Sky Cond. Air Dwpt Max. Min. Relative Humidity Wind Chill (°F) Heat Index (°F) altimeter (in) sea level (mb) 1 hr 3 hr 6 hr
6 hour
Temperature (ºF) Pressure Precipitation (in)